Time,TemperatureF,DewpointF,PressureIn,WindDirection,WindDirectionDegrees,WindSpeedMPH,WindSpeedGustMPH,Humidity,HourlyPrecipIn,Conditions,Clouds,dailyrainin,SoftwareType,DateUTC
2013-02-05 00:01:00,46.0,28.0,30.06,SSW,206,17.0,21.0,49,0.00,,,0.00,,2013-02-05 08:01:00,
2013-02-05 00:11:00,46.0,28.0,30.06,SSW,206,17.0,21.0,49,0.00,,,0.00,,2013-02-05 08:11:00,
2013-02-05 00:21:00,46.0,27.0,30.05,WSW,237,16.0,21.0,48,0.00,,,0.00,,2013-02-05 08:21:00,
2013-02-05 00:31:00,47.0,28.0,30.05,SW,234,17.0,22.0,47,0.00,,,0.00,,2013-02-05 08:31:00,
2013-02-05 00:41:00,47.0,28.0,30.05,SW,234,17.0,22.0,47,0.00,,,0.00,,2013-02-05 08:41:00,
2013-02-05 00:52:00,46.0,27.0,30.05,WSW,247,15.0,21.0,48,0.00,,,0.00,,2013-02-05 08:52:00,
2013-02-05 01:02:00,46.0,28.0,30.05,SW,215,14.0,20.0,49,0.00,,,0.00,,2013-02-05 09:02:00,
2013-02-05 01:11:00,46.0,28.0,30.05,SW,216,15.0,22.0,49,0.00,,,0.00,,2013-02-05 09:11:00,
2013-02-05 01:21:00,46.0,28.0,30.05,SW,216,15.0,22.0,49,0.00,,,0.00,,2013-02-05 09:21:00,
2013-02-05 01:31:00,44.0,27.0,30.04,SW,228,14.0,21.0,51,0.00,,,0.00,,2013-02-05 09:31:00,
2013-02-05 01:41:00,44.0,27.0,30.04,SW,228,14.0,21.0,51,0.00,,,0.00,,2013-02-05 09:41:00,
2013-02-05 01:52:00,47.0,27.0,30.03,SW,236,14.0,22.0,45,0.00,,,0.00,,2013-02-05 09:52:00,
2013-02-05 02:01:00,46.0,26.0,30.03,SW,224,12.0,19.0,46,0.00,,,0.00,,2013-02-05 10:01:00,
2013-02-05 02:11:00,46.0,27.0,30.03,SW,227,14.0,19.0,47,0.00,,,0.00,,2013-02-05 10:11:00,
2013-02-05 02:21:00,46.0,27.0,30.03,SW,227,14.0,19.0,47,0.00,,,0.00,,2013-02-05 10:21:00,
2013-02-05 02:31:00,45.0,27.0,30.03,SW,225,14.0,19.0,48,0.00,,,0.00,,2013-02-05 10:31:00,
2013-02-05 02:42:00,45.0,27.0,30.03,SW,225,14.0,19.0,48,0.00,,,0.00,,2013-02-05 10:42:00,
2013-02-05 02:52:00,44.0,27.0,30.02,SW,218,14.0,19.0,50,0.00,,,0.00,,2013-02-05 10:52:00,
2013-02-05 03:01:00,43.0,26.0,30.02,SW,223,17.0,22.0,51,0.00,,,0.00,,2013-02-05 11:01:00,
2013-02-05 03:11:00,43.0,26.0,30.02,SW,223,17.0,22.0,51,0.00,,,0.00,,2013-02-05 11:11:00,
2013-02-05 03:21:00,45.0,27.0,30.02,SW,232,15.0,21.0,49,0.00,,,0.00,,2013-02-05 11:21:00,
2013-02-05 03:31:00,44.0,28.0,30.01,SW,223,17.0,21.0,52,0.00,,,0.00,,2013-02-05 11:31:00,
2013-02-05 03:41:00,44.0,28.0,30.01,SW,223,17.0,21.0,52,0.00,,,0.00,,2013-02-05 11:41:00,
2013-02-05 03:52:00,44.0,27.0,30.01,SW,225,16.0,23.0,50,0.00,,,0.00,,2013-02-05 11:52:00,
2013-02-05 04:01:00,42.0,26.0,30.00,SW,225,13.0,21.0,53,0.00,,,0.00,,2013-02-05 12:01:00,
2013-02-05 04:12:00,42.0,26.0,30.00,SW,225,13.0,21.0,53,0.00,,,0.00,,2013-02-05 12:12:00,
2013-02-05 04:21:00,46.0,27.0,30.00,WSW,239,11.0,20.0,47,0.00,,,0.00,,2013-02-05 12:21:00,
2013-02-05 04:31:00,46.0,27.0,30.00,SW,236,15.0,21.0,47,0.00,,,0.00,,2013-02-05 12:31:00,
2013-02-05 04:41:00,46.0,27.0,30.00,SW,236,15.0,21.0,47,0.00,,,0.00,,2013-02-05 12:41:00,
2013-02-05 04:52:00,45.0,26.0,30.00,WSW,247,17.0,23.0,47,0.00,,,0.00,,2013-02-05 12:52:00,
2013-02-05 05:01:00,47.0,26.0,30.00,SW,231,15.0,26.0,44,0.00,,,0.00,,2013-02-05 13:01:00,
2013-02-05 05:21:00,43.0,26.0,30.00,SSW,212,15.0,20.0,50,0.00,,,0.00,,2013-02-05 13:21:00,
2013-02-05 05:31:00,43.0,26.0,30.00,SW,217,15.0,20.0,50,0.00,,,0.00,,2013-02-05 13:31:00,
2013-02-05 05:41:00,43.0,26.0,30.00,SW,217,15.0,20.0,50,0.00,,,0.00,,2013-02-05 13:41:00,
2013-02-05 05:52:00,43.0,26.0,29.99,SW,217,15.0,21.0,51,0.00,,,0.00,,2013-02-05 13:52:00,
2013-02-05 06:01:00,43.0,26.0,29.99,SW,215,17.0,21.0,50,0.00,,,0.00,,2013-02-05 14:01:00,
2013-02-05 06:12:00,43.0,26.0,29.99,SW,215,17.0,21.0,50,0.00,,,0.00,,2013-02-05 14:12:00,
2013-02-05 06:21:00,42.0,25.0,29.99,SW,216,15.0,20.0,51,0.00,,,0.00,,2013-02-05 14:21:00,
2013-02-05 06:31:00,43.0,26.0,29.99,SW,214,17.0,23.0,50,0.00,,,0.00,,2013-02-05 14:31:00,
2013-02-05 06:41:00,43.0,26.0,29.99,SW,214,17.0,23.0,50,0.00,,,0.00,,2013-02-05 14:41:00,
2013-02-05 06:52:00,44.0,25.0,29.98,SW,224,17.0,22.0,47,0.00,,,0.00,,2013-02-05 14:52:00,
2013-02-05 07:01:00,45.0,25.0,29.98,SW,220,17.0,21.0,45,0.00,,,0.00,,2013-02-05 15:01:00,
2013-02-05 07:21:00,45.0,24.0,30.00,SW,227,14.0,20.0,44,0.00,,,0.00,,2013-02-05 15:21:00,
2013-02-05 07:32:00,45.0,24.0,30.00,SW,228,17.0,22.0,44,0.00,,,0.00,,2013-02-05 15:32:00,
2013-02-05 07:41:00,45.0,24.0,30.00,SW,228,17.0,22.0,44,0.00,,,0.00,,2013-02-05 15:41:00,
2013-02-05 07:52:00,45.0,25.0,30.00,SW,230,14.0,20.0,45,0.00,,,0.00,,2013-02-05 15:52:00,
2013-02-05 08:01:00,48.0,25.0,30.00,SSW,211,11.0,16.0,41,0.00,,,0.00,,2013-02-05 16:01:00,
2013-02-05 08:22:00,48.0,25.0,30.01,SW,220,11.0,19.0,41,0.00,,,0.00,,2013-02-05 16:22:00,
2013-02-05 08:32:00,50.0,26.0,30.01,SW,226,12.0,21.0,39,0.00,,,0.00,,2013-02-05 16:32:00,
2013-02-05 08:41:00,50.0,26.0,30.01,SW,226,12.0,21.0,39,0.00,,,0.00,,2013-02-05 16:41:00,
2013-02-05 08:52:00,50.0,25.0,30.01,SW,221,16.0,20.0,38,0.00,,,0.00,,2013-02-05 16:52:00,
2013-02-05 09:01:00,55.0,26.0,30.01,SW,233,17.0,22.0,32,0.00,,,0.00,,2013-02-05 17:01:00,
2013-02-05 09:21:00,60.0,25.0,30.01,WSW,255,13.0,23.0,26,0.00,,,0.00,,2013-02-05 17:21:00,
2013-02-05 09:32:00,61.0,24.0,30.02,WNW,282,9.0,21.0,24,0.00,,,0.00,,2013-02-05 17:32:00,
2013-02-05 09:41:00,61.0,24.0,30.02,WNW,282,9.0,21.0,24,0.00,,,0.00,,2013-02-05 17:41:00,
2013-02-05 09:52:00,61.0,24.0,30.01,NW,304,12.0,21.0,24,0.00,,,0.00,,2013-02-05 17:52:00,
2013-02-05 10:01:00,62.0,25.0,30.02,WNW,297,8.0,18.0,24,0.00,,,0.00,,2013-02-05 18:01:00,
2013-02-05 10:21:00,62.0,26.0,30.02,West,276,11.0,21.0,25,0.00,,,0.00,,2013-02-05 18:21:00,
2013-02-05 10:32:00,63.0,25.0,30.01,WNW,286,12.0,20.0,23,0.00,,,0.00,,2013-02-05 18:32:00,
2013-02-05 10:42:00,63.0,25.0,30.01,WNW,286,12.0,20.0,23,0.00,,,0.00,,2013-02-05 18:42:00,
2013-02-05 10:52:00,64.0,24.0,30.03,West,270,15.0,23.0,22,0.00,,,0.00,,2013-02-05 18:52:00,
2013-02-05 11:01:00,64.0,24.0,30.02,West,279,7.0,18.0,22,0.00,,,0.00,,2013-02-05 19:01:00,
2013-02-05 11:21:00,64.0,24.0,30.02,WNW,300,5.0,23.0,22,0.00,,,0.00,,2013-02-05 19:21:00,
2013-02-05 11:31:00,65.0,24.0,30.00,WSW,256,13.0,23.0,21,0.00,,,0.00,,2013-02-05 19:31:00,
2013-02-05 11:42:00,65.0,24.0,30.00,WSW,256,13.0,23.0,21,0.00,,,0.00,,2013-02-05 19:42:00,
2013-02-05 11:51:00,66.0,24.0,30.00,WNW,293,8.0,13.0,20,0.00,,,0.00,,2013-02-05 19:51:00,
2013-02-05 12:01:00,66.0,23.0,29.99,WNW,282,8.0,16.0,19,0.00,,,0.00,,2013-02-05 20:01:00,
2013-02-05 12:21:00,66.0,23.0,29.98,WNW,289,9.0,21.0,19,0.00,,,0.00,,2013-02-05 20:21:00,
2013-02-05 12:31:00,67.0,21.0,29.96,WSW,241,17.0,26.0,17,0.00,,,0.00,,2013-02-05 20:31:00,
2013-02-05 12:41:00,67.0,21.0,29.96,WSW,241,17.0,26.0,17,0.00,,,0.00,,2013-02-05 20:41:00,
2013-02-05 12:52:00,67.0,21.0,29.96,WSW,250,11.0,18.0,17,0.00,,,0.00,,2013-02-05 20:52:00,
2013-02-05 13:01:00,67.0,21.0,29.95,WSW,237,14.0,26.0,17,0.00,,,0.00,,2013-02-05 21:01:00,
2013-02-05 13:11:00,67.0,21.0,29.95,WSW,237,14.0,26.0,17,0.00,,,0.00,,2013-02-05 21:11:00,
2013-02-05 13:21:00,68.0,22.0,29.95,WSW,243,17.0,25.0,17,0.00,,,0.00,,2013-02-05 21:21:00,
2013-02-05 13:31:00,67.0,22.0,29.94,WNW,283,17.0,24.0,18,0.00,,,0.00,,2013-02-05 21:31:00,
2013-02-05 13:41:00,67.0,22.0,29.94,WNW,283,17.0,24.0,18,0.00,,,0.00,,2013-02-05 21:41:00,
2013-02-05 13:52:00,65.0,19.0,29.94,WNW,282,19.0,30.0,17,0.00,,,0.00,,2013-02-05 21:52:00,
2013-02-05 14:01:00,65.0,22.0,29.94,West,281,16.0,28.0,19,0.00,,,0.00,,2013-02-05 22:01:00,
2013-02-05 14:11:00,65.0,22.0,29.94,West,281,16.0,28.0,19,0.00,,,0.00,,2013-02-05 22:11:00,
2013-02-05 14:21:00,64.0,21.0,29.93,WNW,288,14.0,28.0,19,0.00,,,0.00,,2013-02-05 22:21:00,
2013-02-05 14:31:00,64.0,20.0,29.94,WSW,257,16.0,24.0,18,0.00,,,0.00,,2013-02-05 22:31:00,
2013-02-05 14:41:00,64.0,20.0,29.94,WSW,257,16.0,24.0,18,0.00,,,0.00,,2013-02-05 22:41:00,
2013-02-05 14:52:00,65.0,20.0,29.93,WNW,282,12.0,27.0,18,0.00,,,0.00,,2013-02-05 22:52:00,
2013-02-05 15:01:00,63.0,19.0,29.93,West,277,15.0,25.0,18,0.00,,,0.00,,2013-02-05 23:01:00,
2013-02-05 15:11:00,63.0,19.0,29.93,West,277,15.0,25.0,18,0.00,,,0.00,,2013-02-05 23:11:00,
2013-02-05 15:21:00,63.0,20.0,29.93,West,262,14.0,28.0,19,0.00,,,0.00,,2013-02-05 23:21:00,
2013-02-05 15:31:00,64.0,22.0,29.92,WSW,247,18.0,25.0,20,0.00,,,0.00,,2013-02-05 23:31:00,
2013-02-05 15:41:00,64.0,22.0,29.92,WSW,247,18.0,25.0,20,0.00,,,0.00,,2013-02-05 23:41:00,
2013-02-05 15:52:00,64.0,20.0,29.91,WSW,256,10.0,19.0,18,0.00,,,0.00,,2013-02-05 23:52:00,
2013-02-05 16:01:00,63.0,20.0,29.91,WNW,287,10.0,28.0,19,0.00,,,0.00,,2013-02-06 00:01:00,
2013-02-05 16:11:00,63.0,20.0,29.91,WNW,287,10.0,28.0,19,0.00,,,0.00,,2013-02-06 00:11:00,
2013-02-05 16:21:00,63.0,21.0,29.91,WNW,289,13.0,25.0,20,0.00,,,0.00,,2013-02-06 00:21:00,
2013-02-05 16:31:00,60.0,23.0,29.91,WNW,291,15.0,28.0,24,0.00,,,0.00,,2013-02-06 00:31:00,
2013-02-05 16:41:00,60.0,23.0,29.91,WNW,291,15.0,28.0,24,0.00,,,0.00,,2013-02-06 00:41:00,
2013-02-05 16:52:00,58.0,24.0,29.91,WNW,287,15.0,26.0,27,0.00,,,0.00,,2013-02-06 00:52:00,
2013-02-05 17:01:00,57.0,27.0,29.91,WNW,292,19.0,32.0,32,0.00,,,0.00,,2013-02-06 01:01:00,
2013-02-05 17:11:00,57.0,27.0,29.91,WNW,292,19.0,32.0,32,0.00,,,0.00,,2013-02-06 01:11:00,
2013-02-05 17:21:00,56.0,27.0,29.89,WNW,285,28.0,38.0,33,0.00,,,0.00,,2013-02-06 01:21:00,
2013-02-05 17:31:00,56.0,29.0,29.90,WNW,285,28.0,41.0,36,0.00,,,0.00,,2013-02-06 01:31:00,
2013-02-05 17:41:00,56.0,29.0,29.90,WNW,285,28.0,41.0,36,0.00,,,0.00,,2013-02-06 01:41:00,
2013-02-05 17:52:00,55.0,28.0,29.90,WNW,285,24.0,42.0,35,0.00,,,0.00,,2013-02-06 01:52:00,
2013-02-05 18:01:00,55.0,27.0,29.91,WNW,285,28.0,37.0,34,0.00,,,0.00,,2013-02-06 02:01:00,
2013-02-05 18:11:00,55.0,27.0,29.91,WNW,285,28.0,37.0,34,0.00,,,0.00,,2013-02-06 02:11:00,
2013-02-05 18:21:00,55.0,26.0,29.90,WNW,288,24.0,37.0,33,0.00,,,0.00,,2013-02-06 02:21:00,
2013-02-05 18:31:00,55.0,29.0,29.90,WNW,284,30.0,37.0,36,0.00,,,0.00,,2013-02-06 02:31:00,
2013-02-05 18:41:00,55.0,29.0,29.90,WNW,284,30.0,37.0,36,0.00,,,0.00,,2013-02-06 02:41:00,
2013-02-05 18:52:00,54.0,30.0,29.90,WNW,287,31.0,43.0,40,0.00,,,0.00,,2013-02-06 02:52:00,
2013-02-05 19:02:00,53.0,35.0,29.90,WNW,286,29.0,44.0,50,0.00,,,0.00,,2013-02-06 03:02:00,
2013-02-05 19:11:00,53.0,35.0,29.90,WNW,286,29.0,44.0,50,0.00,,,0.00,,2013-02-06 03:11:00,
2013-02-05 19:21:00,52.0,36.0,29.91,WNW,290,30.0,49.0,55,0.00,,,0.00,,2013-02-06 03:21:00,
2013-02-05 19:31:00,51.0,37.0,29.91,WNW,290,26.0,41.0,58,0.00,,,0.00,,2013-02-06 03:31:00,
2013-02-05 19:41:00,51.0,37.0,29.91,WNW,290,26.0,41.0,58,0.00,,,0.00,,2013-02-06 03:41:00,
2013-02-05 19:52:00,51.0,36.0,29.92,WNW,291,30.0,42.0,56,0.00,,,0.00,,2013-02-06 03:52:00,
2013-02-05 20:01:00,51.0,35.0,29.91,WNW,295,33.0,44.0,55,0.00,,,0.00,,2013-02-06 04:01:00,
2013-02-05 20:11:00,51.0,35.0,29.91,WNW,295,33.0,44.0,55,0.00,,,0.00,,2013-02-06 04:11:00,
2013-02-05 20:21:00,51.0,35.0,29.92,WNW,288,22.0,37.0,55,0.00,,,0.00,,2013-02-06 04:21:00,
2013-02-05 20:31:00,51.0,35.0,29.93,WNW,290,25.0,38.0,55,0.00,,,0.00,,2013-02-06 04:31:00,
2013-02-05 20:41:00,51.0,35.0,29.93,WNW,290,25.0,38.0,55,0.00,,,0.00,,2013-02-06 04:41:00,
2013-02-05 20:52:00,51.0,36.0,29.92,WNW,288,27.0,43.0,56,0.00,,,0.00,,2013-02-06 04:52:00,
2013-02-05 21:01:00,50.0,34.0,29.93,WNW,284,27.0,42.0,55,0.00,,,0.00,,2013-02-06 05:01:00,
2013-02-05 21:11:00,50.0,34.0,29.93,WNW,284,27.0,42.0,55,0.00,,,0.00,,2013-02-06 05:11:00,
2013-02-05 21:22:00,50.0,38.0,29.93,WNW,285,30.0,42.0,62,0.00,,,0.00,,2013-02-06 05:22:00,
2013-02-05 21:31:00,49.0,38.0,29.92,WNW,284,31.0,47.0,65,0.00,,,0.00,,2013-02-06 05:31:00,
2013-02-05 21:41:00,49.0,38.0,29.92,WNW,284,31.0,47.0,65,0.00,,,0.00,,2013-02-06 05:41:00,
2013-02-05 21:53:00,49.0,37.0,29.92,WNW,288,29.0,48.0,64,0.00,,,0.00,,2013-02-06 05:53:00,
2013-02-05 22:01:00,49.0,37.0,29.92,WNW,288,29.0,48.0,64,0.00,,,0.00,,2013-02-06 06:01:00,
2013-02-05 22:11:00,49.0,37.0,29.92,WNW,288,29.0,48.0,64,0.00,,,0.00,,2013-02-06 06:11:00,
2013-02-05 22:21:00,49.0,39.0,29.92,WNW,289,29.0,43.0,69,0.00,,,0.00,,2013-02-06 06:21:00,
2013-02-05 22:31:00,49.0,40.0,29.92,WNW,290,30.0,43.0,70,0.00,,,0.00,,2013-02-06 06:31:00,
2013-02-05 22:42:00,49.0,40.0,29.92,WNW,290,30.0,43.0,70,0.00,,,0.00,,2013-02-06 06:42:00,
2013-02-05 22:52:00,49.0,40.0,29.92,WNW,294,26.0,40.0,70,0.00,,,0.00,,2013-02-06 06:52:00,
2013-02-05 23:01:00,49.0,39.0,29.92,WNW,289,33.0,47.0,69,0.00,,,0.00,,2013-02-06 07:01:00,
2013-02-05 23:11:00,49.0,39.0,29.92,WNW,289,33.0,47.0,69,0.00,,,0.00,,2013-02-06 07:11:00,
2013-02-05 23:21:00,49.0,39.0,29.89,WNW,289,35.0,55.0,69,0.00,,,0.00,,2013-02-06 07:21:00,
2013-02-05 23:32:00,48.0,38.0,29.90,WNW,295,36.0,54.0,68,0.00,,,0.00,,2013-02-06 07:32:00,
2013-02-05 23:41:00,48.0,38.0,29.90,WNW,295,36.0,54.0,68,0.00,,,0.00,,2013-02-06 07:41:00,
2013-02-05 23:52:00,48.0,39.0,29.90,WNW,298,36.0,56.0,71,0.00,,,0.00,,2013-02-06 07:52:00,